createdAt,value
2023-05-14T00:02:18.147Z,8.95
2023-05-14T00:04:46.624Z,8.93
2023-05-14T00:07:13.781Z,8.25
2023-05-14T00:09:40.888Z,7.88
2023-05-14T00:12:08.608Z,8.35
2023-05-14T00:14:35.733Z,8.07
2023-05-14T00:17:02.992Z,7.70
2023-05-14T00:19:29.968Z,7.97
2023-05-14T00:21:57.283Z,8.60
2023-05-14T00:24:24.982Z,8.05
2023-05-14T00:26:52.119Z,8.75
2023-05-14T00:29:21.418Z,8.00
2023-05-14T00:31:48.610Z,8.05
2023-05-14T00:34:15.611Z,7.38
2023-05-14T00:36:42.562Z,7.32
2023-05-14T00:39:09.807Z,7.63
2023-05-14T00:41:36.808Z,7.57
2023-05-14T00:44:04.391Z,6.65
2023-05-14T00:46:31.619Z,6.90
2023-05-14T00:48:59.601Z,7.13
2023-05-14T00:51:27.246Z,6.97
2023-05-14T00:53:55.516Z,8.02
2023-05-14T00:56:23.163Z,6.88
2023-05-14T00:58:50.595Z,6.70
2023-05-14T01:01:18.110Z,6.95
2023-05-14T01:03:45.902Z,6.55
2023-05-14T01:06:24.411Z,6.28
2023-05-14T01:09:23.436Z,6.45
2023-05-14T01:12:28.916Z,6.28
2023-05-14T01:15:16.555Z,6.60
2023-05-14T01:17:51.187Z,6.07
2023-05-14T01:20:18.291Z,6.57
2023-05-14T01:22:45.401Z,6.70
2023-05-14T01:25:12.499Z,6.63
2023-05-14T01:28:13.567Z,6.50
2023-05-14T01:30:58.325Z,5.78
2023-05-14T01:33:28.269Z,6.45
2023-05-14T01:35:56.060Z,5.93
2023-05-14T01:38:24.412Z,6.63
2023-05-14T01:40:52.693Z,5.85
2023-05-14T01:43:20.429Z,6.47
2023-05-14T01:45:47.601Z,6.25
2023-05-14T01:48:15.445Z,6.65
2023-05-14T01:50:42.710Z,6.40
2023-05-14T01:53:09.708Z,5.70
2023-05-14T01:55:36.970Z,6.82
2023-05-14T01:58:04.634Z,6.47
2023-05-14T02:00:32.042Z,6.38
2023-05-14T02:02:59.429Z,7.05
2023-05-14T02:05:26.631Z,6.50
2023-05-14T02:07:54.920Z,5.70
2023-05-14T02:10:22.045Z,5.82
2023-05-14T02:12:49.944Z,6.03
2023-05-14T02:15:17.430Z,5.57
2023-05-14T02:17:44.686Z,5.90
2023-05-14T02:20:13.014Z,6.03
2023-05-14T02:22:45.401Z,6.05
2023-05-14T02:25:12.461Z,5.65
2023-05-14T02:27:39.597Z,5.82
2023-05-14T02:30:07.560Z,6.43
2023-05-14T02:32:34.808Z,5.72
2023-05-14T02:35:02.362Z,5.82
2023-05-14T02:37:29.247Z,6.35
2023-05-14T02:39:56.568Z,5.72
2023-05-14T02:42:23.841Z,5.60
2023-05-14T02:44:52.572Z,5.70
2023-05-14T02:47:19.797Z,5.43
2023-05-14T02:49:46.991Z,5.38
2023-05-14T02:52:14.048Z,5.50
2023-05-14T02:54:41.479Z,5.78
2023-05-14T02:57:08.732Z,5.82
2023-05-14T02:59:36.191Z,5.47
2023-05-14T03:02:03.952Z,5.63
2023-05-14T03:04:31.545Z,5.90
2023-05-14T03:06:58.781Z,5.78
2023-05-14T03:09:26.000Z,5.57
2023-05-14T03:11:53.074Z,5.00
2023-05-14T03:14:20.093Z,5.90
2023-05-14T03:16:47.159Z,5.40
2023-05-14T03:19:14.390Z,5.45
2023-05-14T03:21:41.707Z,5.03
2023-05-14T03:24:09.158Z,4.97
2023-05-14T03:26:37.347Z,5.70
2023-05-14T03:29:04.466Z,4.80
2023-05-14T03:31:31.613Z,5.18
2023-05-14T03:33:58.716Z,5.72
2023-05-14T03:36:25.792Z,5.85
2023-05-14T03:38:52.993Z,4.93
2023-05-14T03:41:20.027Z,5.45
2023-05-14T03:43:47.073Z,5.43
2023-05-14T03:46:14.132Z,5.47
2023-05-14T03:48:41.195Z,4.75
2023-05-14T03:51:08.282Z,4.85
2023-05-14T03:53:36.543Z,5.05
2023-05-14T03:56:03.986Z,5.47
2023-05-14T03:58:31.098Z,5.13
2023-05-14T04:01:00.644Z,5.22
2023-05-14T04:03:27.875Z,4.55
2023-05-14T04:05:55.012Z,4.78
2023-05-14T04:08:22.016Z,5.03
2023-05-14T04:10:50.483Z,5.38
2023-05-14T04:13:17.535Z,5.10
2023-05-14T04:15:44.829Z,6.07
2023-05-14T04:18:12.777Z,4.90
2023-05-14T04:20:40.487Z,5.25
2023-05-14T04:23:07.657Z,5.03
2023-05-14T04:25:34.625Z,5.05
2023-05-14T04:28:01.985Z,5.00
2023-05-14T04:30:29.586Z,4.78
2023-05-14T04:32:57.149Z,5.43
2023-05-14T04:35:25.250Z,5.20
2023-05-14T04:37:52.584Z,5.13
2023-05-14T04:40:19.711Z,5.65
2023-05-14T04:42:46.951Z,5.43
2023-05-14T04:45:14.733Z,5.43
2023-05-14T04:47:41.857Z,5.60
2023-05-14T04:50:09.745Z,5.60
2023-05-14T04:52:36.947Z,5.63
2023-05-14T04:55:04.510Z,5.30
2023-05-14T04:57:31.871Z,5.18
2023-05-14T04:59:59.004Z,5.72
2023-05-14T05:02:26.009Z,5.50
2023-05-14T05:04:53.232Z,5.18
2023-05-14T05:07:20.258Z,5.38
2023-05-14T05:09:47.419Z,5.07
2023-05-14T05:12:14.355Z,5.47
2023-05-14T05:14:41.548Z,5.65
2023-05-14T05:17:08.803Z,5.40
2023-05-14T05:19:43.701Z,4.75
2023-05-14T05:22:11.892Z,5.40
2023-05-14T05:24:38.862Z,4.95
2023-05-14T05:27:06.078Z,5.60
2023-05-14T05:29:33.499Z,5.18
2023-05-14T05:32:00.883Z,5.68
2023-05-14T05:34:28.068Z,5.20
2023-05-14T05:36:55.305Z,5.72
2023-05-14T05:39:22.631Z,5.35
2023-05-14T05:41:49.987Z,5.18
2023-05-14T05:44:16.881Z,5.50
2023-05-14T05:46:43.922Z,6.35
2023-05-14T05:49:10.929Z,5.70
2023-05-14T05:51:38.221Z,4.88
2023-05-14T05:54:05.353Z,5.72
2023-05-14T05:56:32.640Z,5.47
2023-05-14T05:59:00.772Z,5.55
2023-05-14T06:01:27.982Z,5.05
2023-05-14T06:03:55.093Z,5.32
2023-05-14T06:06:22.146Z,5.03
2023-05-14T06:08:49.340Z,4.28
2023-05-14T06:11:17.245Z,5.00
2023-05-14T06:13:44.457Z,4.50
2023-05-14T06:16:11.582Z,4.53
2023-05-14T06:18:38.578Z,4.82
2023-05-14T06:21:05.510Z,5.25
2023-05-14T06:23:33.385Z,4.85
2023-05-14T06:26:00.774Z,4.57
2023-05-14T06:28:27.922Z,4.47
2023-05-14T06:30:56.124Z,4.28
2023-05-14T06:33:35.777Z,4.40
2023-05-14T06:36:10.552Z,4.45
2023-05-14T06:38:51.506Z,4.55
2023-05-14T06:41:18.819Z,4.50
2023-05-14T06:43:57.452Z,4.38
2023-05-14T06:46:33.711Z,4.40
2023-05-14T06:49:16.763Z,4.38
2023-05-14T06:51:53.850Z,4.20
2023-05-14T06:55:08.751Z,4.43
2023-05-14T06:57:42.386Z,4.03
2023-05-14T07:00:10.161Z,4.60
2023-05-14T07:02:37.552Z,4.00
2023-05-14T07:05:05.178Z,4.68
2023-05-14T07:07:32.350Z,4.68
2023-05-14T07:09:59.638Z,4.28
2023-05-14T07:12:27.415Z,4.50
2023-05-14T07:14:54.336Z,4.22
2023-05-14T07:17:21.580Z,4.25
2023-05-14T07:19:49.037Z,4.22
2023-05-14T07:22:16.708Z,4.10
2023-05-14T07:24:45.399Z,4.15
2023-05-14T07:27:12.464Z,3.90
2023-05-14T07:29:48.092Z,3.95
2023-05-14T07:32:17.042Z,3.67
2023-05-14T07:34:46.350Z,3.90
2023-05-14T07:37:13.461Z,3.90
2023-05-14T07:39:41.668Z,3.50
2023-05-14T07:42:09.106Z,3.65
2023-05-14T07:44:36.049Z,3.40
2023-05-14T07:47:04.224Z,3.63
2023-05-14T07:49:31.704Z,3.60
2023-05-14T07:52:06.678Z,3.38
2023-05-14T07:54:36.868Z,3.38
2023-05-14T07:57:04.607Z,2.92
2023-05-14T07:59:32.130Z,3.08
2023-05-14T08:01:59.469Z,3.05
2023-05-14T08:04:26.994Z,3.13
2023-05-14T08:07:02.931Z,2.92
2023-05-14T08:09:30.351Z,3.13
2023-05-14T08:11:57.868Z,2.70
2023-05-14T08:14:27.797Z,2.95
2023-05-14T08:16:55.365Z,3.10
2023-05-14T08:19:24.736Z,2.78
2023-05-14T08:21:54.653Z,3.30
2023-05-14T08:24:21.854Z,2.80
2023-05-14T08:26:49.137Z,2.95
2023-05-14T08:29:16.862Z,2.67
2023-05-14T08:32:19.364Z,2.40
2023-05-14T08:34:50.900Z,3.00
2023-05-14T08:37:19.334Z,2.67
2023-05-14T08:39:46.551Z,2.80
2023-05-14T08:42:18.256Z,2.53
2023-05-14T08:45:12.973Z,2.70
2023-05-14T08:54:18.968Z,2.33
2023-05-14T08:56:53.716Z,2.58
2023-05-14T08:59:21.115Z,2.92
2023-05-14T09:02:18.046Z,2.50
2023-05-14T09:07:21.513Z,2.22
2023-05-14T09:09:54.226Z,2.50
2023-05-14T09:12:29.156Z,2.20
2023-05-14T09:14:56.306Z,2.83
2023-05-14T09:17:27.655Z,2.60
2023-05-14T09:19:55.248Z,2.38
2023-05-14T09:22:22.619Z,2.15
2023-05-14T09:25:12.082Z,2.47
2023-05-14T09:27:39.661Z,2.00
2023-05-14T09:30:14.630Z,2.47
2023-05-14T09:32:46.138Z,2.40
2023-05-14T09:35:41.365Z,2.53
2023-05-14T09:38:08.641Z,2.50
2023-05-14T09:40:39.549Z,2.28
2023-05-14T09:43:12.828Z,2.45
2023-05-14T09:45:47.970Z,2.70
2023-05-14T09:48:24.514Z,2.22
2023-05-14T09:50:52.449Z,2.10
2023-05-14T09:53:19.764Z,2.60
2023-05-14T09:55:47.286Z,2.70
2023-05-14T09:58:16.799Z,2.63
2023-05-14T10:03:30.992Z,1.92
2023-05-14T10:06:04.648Z,2.58
2023-05-14T10:08:36.269Z,2.65
2023-05-14T10:11:29.697Z,2.50
2023-05-14T10:14:07.548Z,2.72
2023-05-14T10:16:45.717Z,2.47
2023-05-14T10:19:16.053Z,2.22
2023-05-14T10:22:08.029Z,2.33
2023-05-14T10:24:35.884Z,2.40
2023-05-14T10:27:03.365Z,2.42
2023-05-14T10:29:38.319Z,2.10
2023-05-14T10:32:10.057Z,2.60
2023-05-14T10:34:47.266Z,2.20
2023-05-14T10:37:25.786Z,2.53
2023-05-14T10:39:54.744Z,2.33
2023-05-14T10:42:41.484Z,2.30
2023-05-14T10:45:11.837Z,2.72
2023-05-14T10:47:51.610Z,2.20
2023-05-14T10:50:20.564Z,2.63
2023-05-14T10:52:48.979Z,2.88
2023-05-14T10:55:19.595Z,1.88
2023-05-14T10:57:47.396Z,2.40
2023-05-14T11:00:18.378Z,2.42
2023-05-14T11:02:45.637Z,2.40
2023-05-14T11:05:17.096Z,2.90
2023-05-14T11:07:51.707Z,2.85
2023-05-14T11:10:22.984Z,2.47
2023-05-14T11:12:52.206Z,2.85
2023-05-14T11:15:22.635Z,2.70
2023-05-14T11:17:51.532Z,2.53
2023-05-14T11:20:19.400Z,2.70
2023-05-14T11:22:48.366Z,3.00
2023-05-14T11:25:15.793Z,3.08
2023-05-14T11:27:48.275Z,2.22
2023-05-14T11:30:19.363Z,3.10
2023-05-14T11:32:48.851Z,2.65
2023-05-14T11:35:17.902Z,2.38
2023-05-14T11:37:54.393Z,2.35
2023-05-14T11:40:22.077Z,3.20
2023-05-14T11:42:53.695Z,2.88
2023-05-14T11:45:30.274Z,2.78
2023-05-14T11:47:57.737Z,2.90
2023-05-14T11:50:26.371Z,2.47
2023-05-14T11:52:57.768Z,2.60
2023-05-14T11:55:24.803Z,2.63
2023-05-14T11:57:55.770Z,2.97
2023-05-14T12:00:27.220Z,2.55
2023-05-14T12:02:57.725Z,2.72
2023-05-14T12:05:30.135Z,2.85
2023-05-14T12:07:58.391Z,2.53
2023-05-14T12:10:25.848Z,2.83
2023-05-14T12:12:57.587Z,2.67
2023-05-14T12:15:27.378Z,2.60
2023-05-14T12:18:24.765Z,3.28
2023-05-14T12:21:19.990Z,2.65
2023-05-14T12:23:49.260Z,2.50
2023-05-14T12:26:25.703Z,2.78
2023-05-14T12:34:39.655Z,2.28
2023-05-14T12:37:15.210Z,3.08
2023-05-14T12:39:47.091Z,2.47
2023-05-14T12:42:48.397Z,2.47
2023-05-14T12:45:20.930Z,2.63
2023-05-14T12:48:09.668Z,2.50
2023-05-14T12:51:00.399Z,2.60
2023-05-14T12:53:27.748Z,2.38
2023-05-14T12:56:02.959Z,2.60
2023-05-14T12:58:30.514Z,2.60
2023-05-14T13:03:44.800Z,2.33
2023-05-14T13:06:16.386Z,2.88
2023-05-14T13:08:49.209Z,2.83
2023-05-14T13:11:18.663Z,2.90
2023-05-14T13:13:52.478Z,2.58
2023-05-14T13:16:21.702Z,2.37
2023-05-14T13:18:49.361Z,2.53
2023-05-14T13:21:20.091Z,2.58
2023-05-14T13:23:49.323Z,2.60
2023-05-14T13:26:21.084Z,2.72
2023-05-14T13:28:55.018Z,2.50
2023-05-14T13:31:24.895Z,2.22
2023-05-14T13:33:54.625Z,2.22
2023-05-14T13:36:24.578Z,2.83
2023-05-14T13:38:52.001Z,2.78
2023-05-14T13:41:19.078Z,2.80
2023-05-14T13:43:46.695Z,2.67
2023-05-14T13:46:30.749Z,2.65
2023-05-14T13:49:06.791Z,2.50
2023-05-14T13:51:34.536Z,2.08
2023-05-14T13:54:12.202Z,2.40
2023-05-14T13:56:44.265Z,2.75
2023-05-14T13:59:18.305Z,3.08
2023-05-14T14:01:48.718Z,2.47
2023-05-14T14:04:36.237Z,2.85
2023-05-14T14:07:09.459Z,2.58
2023-05-14T14:09:40.253Z,2.30
2023-05-14T14:12:13.121Z,2.42
2023-05-14T14:14:44.282Z,2.63
2023-05-14T14:17:12.833Z,2.28
2023-05-14T14:19:47.037Z,2.20
2023-05-14T14:22:31.347Z,2.58
2023-05-14T14:25:25.430Z,13.15
2023-05-14T14:31:29.005Z,5.22
2023-05-14T14:33:58.698Z,4.25
2023-05-14T14:36:30.710Z,3.65
2023-05-14T14:39:05.590Z,6.75
2023-05-14T14:41:35.906Z,4.95
2023-05-14T14:44:02.930Z,2.50
2023-05-14T14:46:33.452Z,2.92
2023-05-14T14:49:35.906Z,2.30
2023-05-14T14:52:18.134Z,3.60
2023-05-14T14:54:48.786Z,4.25
2023-05-14T14:57:20.711Z,3.92
2023-05-14T15:00:12.440Z,2.40
2023-05-14T15:02:44.669Z,2.45
2023-05-14T15:05:18.201Z,2.80
2023-05-14T15:07:50.084Z,2.05
2023-05-14T15:10:17.413Z,2.55
2023-05-14T15:12:51.937Z,2.42
2023-05-14T15:15:22.570Z,2.50
2023-05-14T15:17:51.753Z,2.70
2023-05-14T15:20:20.669Z,2.33
2023-05-14T15:22:51.634Z,2.28
2023-05-14T15:25:27.970Z,2.60
2023-05-14T15:30:26.601Z,2.22
2023-05-14T15:32:56.319Z,2.58
2023-05-14T15:35:24.055Z,2.65
2023-05-14T15:37:51.484Z,2.40
2023-05-14T15:40:19.534Z,2.47
2023-05-14T15:42:47.493Z,2.40
2023-05-14T15:45:15.256Z,2.35
2023-05-14T15:47:42.659Z,2.13
2023-05-14T15:50:10.602Z,2.78
2023-05-14T15:52:39.632Z,2.97
2023-05-14T15:55:13.374Z,2.20
2023-05-14T15:57:40.526Z,3.00
2023-05-14T16:00:12.708Z,2.28
2023-05-14T16:02:40.139Z,3.00
2023-05-14T16:05:19.429Z,2.92
2023-05-14T16:07:51.409Z,2.55
2023-05-14T16:10:21.309Z,2.38
2023-05-14T16:12:55.214Z,2.75
2023-05-14T16:15:22.951Z,2.50
2023-05-14T16:17:50.112Z,2.22
2023-05-14T16:20:17.251Z,2.28
2023-05-14T16:22:44.751Z,2.78
2023-05-14T16:25:12.479Z,3.35
2023-05-14T16:27:39.578Z,2.58
2023-05-14T16:30:08.157Z,2.67
2023-05-14T16:32:35.450Z,2.53
2023-05-14T16:35:03.286Z,2.80
2023-05-14T16:37:31.386Z,2.75
2023-05-14T16:39:59.344Z,3.38
2023-05-14T16:42:26.511Z,3.05
2023-05-14T16:44:53.993Z,2.78
2023-05-14T16:47:21.638Z,2.92
2023-05-14T16:49:49.393Z,2.90
2023-05-14T16:52:16.727Z,2.33
2023-05-14T16:54:43.859Z,2.70
2023-05-14T16:57:10.968Z,2.45
2023-05-14T16:59:44.189Z,2.85
2023-05-14T17:02:11.240Z,2.75
2023-05-14T17:04:38.796Z,4.22
2023-05-14T17:07:06.034Z,3.10
2023-05-14T17:09:33.137Z,2.65
2023-05-14T17:12:01.297Z,2.80
2023-05-14T17:14:28.370Z,3.22
2023-05-14T17:16:55.880Z,3.10
2023-05-14T17:19:23.051Z,3.10
2023-05-14T17:21:50.919Z,2.85
2023-05-14T17:24:18.023Z,2.78
2023-05-14T17:26:45.375Z,2.90
2023-05-14T17:29:12.339Z,3.13
2023-05-14T17:31:39.432Z,3.22
2023-05-14T17:34:06.856Z,3.40
2023-05-14T17:36:34.082Z,3.22
2023-05-14T17:39:01.303Z,2.95
2023-05-14T17:41:28.467Z,3.65
2023-05-14T17:43:55.451Z,4.07
2023-05-14T17:46:22.677Z,3.17
2023-05-14T17:48:49.797Z,3.60
2023-05-14T17:51:17.021Z,3.63
2023-05-14T17:53:43.960Z,3.40
2023-05-14T17:56:10.940Z,3.42
2023-05-14T17:58:38.178Z,4.15
2023-05-14T18:01:06.406Z,4.00
2023-05-14T18:03:33.827Z,4.43
2023-05-14T18:06:00.944Z,4.45
2023-05-14T18:08:30.508Z,5.03
2023-05-14T18:11:00.281Z,4.63
2023-05-14T18:13:27.870Z,4.43
2023-05-14T18:15:56.702Z,4.80
2023-05-14T18:18:24.733Z,4.53
2023-05-14T18:20:52.754Z,4.88
2023-05-14T18:23:20.057Z,5.00
2023-05-14T18:25:48.068Z,5.13
2023-05-14T18:28:16.001Z,4.57
2023-05-14T18:30:45.779Z,4.63
2023-05-14T18:33:13.392Z,4.50
2023-05-14T18:35:43.830Z,4.88
2023-05-14T18:38:12.715Z,4.10
2023-05-14T18:40:40.053Z,5.53
2023-05-14T18:43:07.680Z,5.78
2023-05-14T18:45:34.786Z,5.57
2023-05-14T18:48:01.857Z,5.25
2023-05-14T18:50:30.649Z,4.45
2023-05-14T18:52:57.741Z,4.80
2023-05-14T18:55:25.124Z,4.85
2023-05-14T18:57:52.356Z,5.13
2023-05-14T19:00:19.794Z,5.53
2023-05-14T19:02:46.811Z,6.63
2023-05-14T19:05:15.594Z,6.43
2023-05-14T19:07:43.694Z,5.50
2023-05-14T19:10:11.197Z,5.40
2023-05-14T19:12:38.260Z,4.68
2023-05-14T19:15:06.580Z,4.63
2023-05-14T19:17:33.935Z,4.70
2023-05-14T19:20:01.094Z,5.10
2023-05-14T19:22:28.065Z,4.50
2023-05-14T19:24:55.092Z,4.80
2023-05-14T19:27:24.069Z,4.68
2023-05-14T19:29:51.036Z,4.22
2023-05-14T19:32:18.356Z,4.25
2023-05-14T19:34:45.416Z,4.10
2023-05-14T19:37:12.672Z,4.47
2023-05-14T19:39:39.911Z,5.30
2023-05-14T19:42:06.889Z,4.70
2023-05-14T19:44:34.071Z,5.38
2023-05-14T19:47:02.147Z,5.43
2023-05-14T19:49:29.048Z,5.63
2023-05-14T19:51:56.109Z,6.15
2023-05-14T19:54:23.251Z,6.50
2023-05-14T19:56:50.438Z,6.68
2023-05-14T19:59:17.495Z,6.70
2023-05-14T20:01:44.489Z,7.00
2023-05-14T20:04:11.689Z,7.32
2023-05-14T20:06:40.191Z,7.78
2023-05-14T20:09:07.544Z,7.97
2023-05-14T20:11:35.715Z,8.32
2023-05-14T20:14:02.812Z,7.65
2023-05-14T20:16:29.920Z,7.90
2023-05-14T20:18:57.093Z,8.32
2023-05-14T20:21:41.436Z,7.38
2023-05-14T20:28:20.670Z,7.30
2023-05-14T20:34:17.366Z,6.93
2023-05-14T20:37:07.154Z,7.25
2023-05-14T20:42:59.238Z,5.72
2023-05-14T20:45:39.450Z,6.25
2023-05-14T20:48:32.249Z,6.22
2023-05-14T20:51:12.776Z,5.85
2023-05-14T20:53:51.981Z,5.80
2023-05-14T20:56:34.175Z,6.15
2023-05-14T20:59:08.831Z,7.40
2023-05-14T21:01:35.910Z,8.25
2023-05-14T21:04:03.297Z,7.07
2023-05-14T21:06:30.473Z,6.50
2023-05-14T21:08:57.424Z,5.97
2023-05-14T21:11:25.535Z,7.10
2023-05-14T21:13:52.815Z,6.13
2023-05-14T21:16:20.248Z,6.72
2023-05-14T21:18:54.991Z,6.55
2023-05-14T21:21:28.113Z,6.85
2023-05-14T21:24:19.076Z,7.03
2023-05-14T21:29:34.998Z,6.88
2023-05-14T21:32:26.149Z,6.53
2023-05-14T21:35:05.421Z,7.97
2023-05-14T21:38:05.729Z,6.78
2023-05-14T21:40:40.464Z,9.60
2023-05-14T21:43:21.331Z,8.90
2023-05-14T21:46:19.108Z,8.73
2023-05-14T21:49:09.192Z,8.68
2023-05-14T21:51:38.978Z,6.97
2023-05-14T22:03:11.594Z,6.53
2023-05-14T22:05:49.263Z,6.53
2023-05-14T22:08:41.146Z,6.63
2023-05-14T22:11:16.215Z,6.40
2023-05-14T22:13:44.733Z,6.20
2023-05-14T22:16:14.062Z,6.93
2023-05-14T22:18:43.766Z,6.38
2023-05-14T22:21:10.803Z,6.88
2023-05-14T22:23:38.186Z,6.72
2023-05-14T22:26:05.631Z,7.15
2023-05-14T22:28:32.548Z,5.90
2023-05-14T22:31:00.548Z,7.07
2023-05-14T22:33:27.748Z,6.60
2023-05-14T22:35:54.813Z,6.32
2023-05-14T22:38:22.130Z,6.70
2023-05-14T22:40:49.585Z,6.30
2023-05-14T22:43:16.799Z,6.80
2023-05-14T22:45:44.488Z,7.18
2023-05-14T22:48:11.561Z,6.25
2023-05-14T22:50:38.879Z,6.45
2023-05-14T22:53:05.786Z,6.68
2023-05-14T22:55:34.736Z,6.70
2023-05-14T22:58:02.168Z,6.72
2023-05-14T23:00:29.287Z,7.03
2023-05-14T23:02:56.844Z,6.25
2023-05-14T23:05:24.269Z,6.88
2023-05-14T23:07:53.381Z,6.90
2023-05-14T23:10:20.371Z,6.38
2023-05-14T23:12:47.416Z,6.55
2023-05-14T23:15:14.735Z,6.60
2023-05-14T23:17:42.182Z,6.00
2023-05-14T23:20:13.340Z,6.55
2023-05-14T23:22:40.960Z,6.60
2023-05-14T23:25:08.593Z,6.60
2023-05-14T23:27:35.634Z,6.85
2023-05-14T23:30:04.221Z,6.65
2023-05-14T23:32:31.244Z,6.72
2023-05-14T23:34:58.246Z,6.75
2023-05-14T23:37:25.443Z,6.53
2023-05-14T23:39:52.820Z,6.30
2023-05-14T23:42:20.111Z,6.45
2023-05-14T23:44:47.195Z,7.50
2023-05-14T23:47:14.394Z,5.88
2023-05-14T23:49:41.755Z,6.80
2023-05-14T23:52:09.064Z,7.47
2023-05-14T23:54:36.049Z,7.50
2023-05-14T23:57:04.486Z,7.28
2023-05-14T23:59:31.609Z,7.20
